Time;durP1;ratioP1;P1;durP2;ratioP2;P2;SDS_P1;SDS_P2;PMS_P1;PMS_P2;Temp;Humidity;BMP_temperature;BMP_pressure;BME280_temperature;BME280_humidity;BME280_pressure;Samples;Min_cycle;Max_cycle;Signal;HPM_P1;HPM_P2
2021/05/26 00:01:29;;;;;;;1.07;0.60;;;12.50;36.30;;;;;;5112484;28;39854;-84
2021/05/26 00:04:00;;;;;;;0.90;0.60;;;12.50;36.40;;;;;;5092942;27;38626;-85
2021/05/26 00:06:27;;;;;;;1.27;0.70;;;12.50;36.60;;;;;;5103291;27;38956;-84
2021/05/26 00:08:57;;;;;;;1.30;0.63;;;12.40;36.70;;;;;;5092896;28;35815;-85
2021/05/26 00:11:24;;;;;;;1.07;0.60;;;12.40;37.00;;;;;;5092482;28;38682;-85
2021/05/26 00:13:52;;;;;;;1.17;0.63;;;12.40;37.10;;;;;;5105746;27;39063;-84
2021/05/26 00:16:20;;;;;;;2.80;0.70;;;12.30;37.30;;;;;;5104253;27;38437;-84
2021/05/26 00:18:47;;;;;;;1.10;0.70;;;12.20;37.70;;;;;;5116261;28;36872;-85
2021/05/26 00:21:14;;;;;;;2.37;0.70;;;12.20;37.70;;;;;;5099405;28;38575;-85
2021/05/26 00:23:41;;;;;;;0.80;0.60;;;12.10;37.60;;;;;;5113678;28;38851;-84
2021/05/26 00:26:11;;;;;;;1.93;0.70;;;12.20;37.90;;;;;;5099282;28;37385;-86
2021/05/26 00:28:40;;;;;;;1.23;0.87;;;12.20;38.00;;;;;;5086081;28;35795;-84
2021/05/26 00:31:09;;;;;;;1.43;1.07;;;12.20;38.20;;;;;;5112632;27;38201;-86
2021/05/26 00:33:37;;;;;;;2.37;0.70;;;12.20;38.00;;;;;;5108465;28;38999;-85
2021/05/26 00:36:05;;;;;;;3.57;1.00;;;12.20;38.00;;;;;;5108917;28;38849;-86
2021/05/26 00:38:32;;;;;;;2.10;1.00;;;12.30;38.10;;;;;;5114962;27;37706;-83
2021/05/26 00:40:59;;;;;;;1.70;0.50;;;12.20;38.10;;;;;;5095508;28;39158;-83
2021/05/26 00:43:26;;;;;;;1.90;0.67;;;12.30;38.30;;;;;;5113496;27;40715;-83
2021/05/26 00:45:53;;;;;;;1.40;0.73;;;12.20;38.70;;;;;;5123075;27;38769;-83
2021/05/26 00:48:21;;;;;;;2.00;0.87;;;12.20;38.50;;;;;;5099611;27;35768;-83
2021/05/26 00:50:48;;;;;;;2.60;0.60;;;12.30;38.60;;;;;;5101927;27;38553;-82
2021/05/26 00:53:16;;;;;;;1.37;0.60;;;12.30;38.80;;;;;;5100657;28;38633;-83
2021/05/26 00:55:44;;;;;;;2.60;0.87;;;12.20;38.70;;;;;;5100403;27;37313;-82
2021/05/26 00:58:14;;;;;;;1.13;0.70;;;12.20;38.80;;;;;;5111942;28;36717;-82
2021/05/26 01:00:42;;;;;;;1.10;0.53;;;12.20;38.80;;;;;;5089847;28;38156;-83
2021/05/26 01:03:11;;;;;;;2.90;0.97;;;12.20;39.00;;;;;;5113115;27;38872;-82
2021/05/26 01:05:43;;;;;;;2.50;1.10;;;12.20;39.00;;;;;;5091176;28;37044;-82
2021/05/26 01:08:11;;;;;;;1.13;0.60;;;12.20;38.90;;;;;;5095595;28;37496;-82
2021/05/26 01:10:40;;;;;;;1.70;0.77;;;12.20;38.90;;;;;;5080711;28;39695;-82
2021/05/26 01:13:12;;;;;;;1.47;0.60;;;12.20;38.90;;;;;;5099550;28;39250;-83
2021/05/26 01:15:41;;;;;;;3.93;0.80;;;12.20;38.90;;;;;;5089146;28;38576;-82
2021/05/26 01:18:25;;;;;;;1.63;0.60;;;12.20;38.90;;;;;;5090182;28;36641;-83
2021/05/26 01:20:58;;;;;;;1.37;0.80;;;12.20;39.00;;;;;;5092559;28;39943;-82
2021/05/26 01:23:29;;;;;;;1.03;0.60;;;12.30;39.30;;;;;;5115043;27;39139;-83
2021/05/26 01:26:02;;;;;;;0.93;0.70;;;12.40;39.30;;;;;;5090430;28;37204;-85
2021/05/26 01:28:31;;;;;;;1.40;0.80;;;12.40;40.00;;;;;;5081832;28;36814;-85
2021/05/26 01:30:59;;;;;;;3.27;0.80;;;12.40;42.40;;;;;;5092666;28;39479;-85
2021/05/26 01:33:28;;;;;;;2.33;0.70;;;12.10;43.10;;;;;;5092744;28;37491;-85
2021/05/26 01:35:58;;;;;;;2.70;1.30;;;11.90;44.50;;;;;;5090051;28;36959;-84
2021/05/26 01:38:25;;;;;;;0.73;0.60;;;11.80;45.40;;;;;;5110483;27;35819;-85
2021/05/26 01:40:57;;;;;;;1.50;0.80;;;11.70;46.10;;;;;;5113104;27;40347;-85
2021/05/26 01:43:25;;;;;;;1.80;1.00;;;11.60;46.20;;;;;;5091904;27;37603;-84
2021/05/26 01:45:52;;;;;;;1.47;0.90;;;11.50;47.20;;;;;;5101254;28;38822;-83
2021/05/26 01:48:20;;;;;;;2.40;0.53;;;11.50;47.90;;;;;;5114362;27;38067;-82
2021/05/26 01:50:47;;;;;;;3.43;0.93;;;11.40;48.10;;;;;;5115305;27;40323;-82
2021/05/26 01:53:15;;;;;;;2.63;1.03;;;11.30;48.90;;;;;;5109793;27;39135;-83
2021/05/26 01:55:42;;;;;;;4.53;1.10;;;11.30;49.10;;;;;;5097675;27;37762;-82
2021/05/26 01:58:15;;;;;;;1.87;0.80;;;11.20;49.40;;;;;;5105133;28;37212;-83
2021/05/26 02:00:44;;;;;;;1.70;0.80;;;11.30;49.70;;;;;;5090690;28;38678;-83
2021/05/26 02:03:11;;;;;;;1.50;0.80;;;11.30;50.00;;;;;;5080961;28;38162;-82
2021/05/26 02:05:39;;;;;;;1.90;0.97;;;11.20;50.20;;;;;;5090745;28;38067;-85
2021/05/26 02:08:06;;;;;;;6.50;0.87;;;11.30;50.30;;;;;;5089494;28;36730;-82
2021/05/26 02:13:20;;;;;;;1.90;1.00;;;11.30;52.30;;;;;;5091891;28;37981;-83
2021/05/26 02:15:57;;;;;;;1.73;0.80;;;11.30;52.70;;;;;;5091900;28;38428;-83
2021/05/26 02:18:24;;;;;;;1.63;0.93;;;11.20;53.00;;;;;;5091147;28;36805;-83
2021/05/26 02:20:51;;;;;;;1.33;1.23;;;11.20;53.30;;;;;;5094686;28;39637;-82
2021/05/26 02:23:18;;;;;;;1.87;0.70;;;11.10;53.40;;;;;;5096061;28;38328;-82
2021/05/26 02:25:45;;;;;;;2.40;0.70;;;11.00;53.30;;;;;;5090300;28;37926;-83
2021/05/26 02:28:12;;;;;;;3.53;1.00;;;11.00;53.40;;;;;;5101102;28;37003;-84
2021/05/26 02:30:40;;;;;;;2.10;0.73;;;10.90;53.20;;;;;;5112219;28;39781;-82
2021/05/26 02:33:09;;;;;;;1.43;0.80;;;10.90;53.40;;;;;;5109413;28;39960;-82
2021/05/26 02:35:38;;;;;;;1.40;0.70;;;10.80;53.50;;;;;;5088217;28;37442;-83
2021/05/26 02:38:05;;;;;;;2.80;0.80;;;10.80;53.80;;;;;;5080571;28;37399;-82
2021/05/26 02:40:33;;;;;;;4.53;1.07;;;10.80;54.10;;;;;;5096198;28;38340;-82
2021/05/26 02:43:04;;;;;;;1.20;1.00;;;10.80;54.10;;;;;;5109852;27;37685;-83
2021/05/26 02:45:32;;;;;;;1.40;0.77;;;10.80;54.10;;;;;;5095559;28;37878;-83
2021/05/26 02:48:01;;;;;;;1.97;0.97;;;10.80;54.10;;;;;;5095294;28;36769;-82
2021/05/26 02:50:31;;;;;;;3.70;1.00;;;10.80;53.90;;;;;;5118551;27;38336;-83
2021/05/26 02:52:58;;;;;;;3.27;0.93;;;10.80;54.10;;;;;;5108091;28;38718;-83
2021/05/26 02:55:27;;;;;;;5.47;1.00;;;10.90;54.00;;;;;;5094361;28;37418;-82
2021/05/26 02:58:13;;;;;;;3.80;0.90;;;10.90;53.60;;;;;;5118149;28;37813;-82
2021/05/26 03:00:58;;;;;;;2.10;0.90;;;10.80;53.00;;;;;;5108034;28;40141;-82
2021/05/26 03:03:48;;;;;;;2.77;0.97;;;10.80;53.20;;;;;;5094788;28;37814;-82
2021/05/26 03:06:23;;;;;;;1.00;0.80;;;10.80;53.30;;;;;;5113219;28;39172;-84
2021/05/26 03:08:51;;;;;;;3.23;0.83;;;10.90;53.40;;;;;;5093809;28;36098;-83
2021/05/26 03:11:22;;;;;;;2.43;1.30;;;10.90;53.40;;;;;;5093583;28;39317;-83
2021/05/26 03:14:25;;;;;;;2.00;1.23;;;10.90;53.40;;;;;;5098206;28;37948;-83
2021/05/26 03:16:55;;;;;;;1.70;0.83;;;10.90;53.60;;;;;;5111059;28;38473;-84
2021/05/26 03:19:25;;;;;;;6.20;1.00;;;10.90;54.00;;;;;;5095201;28;36145;-84
2021/05/26 03:22:02;;;;;;;2.83;1.03;;;10.90;54.20;;;;;;5110233;28;39821;-85
2021/05/26 03:24:48;;;;;;;2.40;1.10;;;10.90;54.40;;;;;;5093759;28;40432;-83
2021/05/26 03:27:15;;;;;;;3.30;0.90;;;10.90;54.90;;;;;;5094718;28;37245;-84
2021/05/26 03:29:45;;;;;;;1.87;0.80;;;10.90;55.30;;;;;;5103446;27;38012;-84
2021/05/26 03:32:12;;;;;;;2.33;1.50;;;10.90;55.30;;;;;;5117669;27;40408;-85
2021/05/26 03:34:42;;;;;;;3.20;1.27;;;10.90;55.70;;;;;;5093254;28;37883;-84
2021/05/26 03:37:13;;;;;;;2.77;1.10;;;10.90;56.40;;;;;;5085285;27;37525;-84
2021/05/26 03:39:40;;;;;;;3.43;1.20;;;10.90;56.50;;;;;;5123527;27;36141;-84
2021/05/26 03:42:08;;;;;;;3.00;2.27;;;10.90;57.30;;;;;;5093082;28;40703;-84
2021/05/26 03:44:36;;;;;;;1.90;1.37;;;11.00;57.80;;;;;;5093811;28;37587;-83
2021/05/26 03:47:03;;;;;;;3.30;1.30;;;11.00;58.20;;;;;;5094079;28;36905;-83
2021/05/26 03:49:30;;;;;;;3.30;1.83;;;11.00;58.50;;;;;;5117996;27;37301;-83
2021/05/26 03:52:00;;;;;;;3.97;1.37;;;10.90;58.80;;;;;;5110027;28;40150;-84
2021/05/26 03:54:28;;;;;;;3.07;1.37;;;10.90;58.80;;;;;;5088048;28;37883;-84
2021/05/26 03:56:56;;;;;;;3.80;1.67;;;10.80;59.30;;;;;;5094067;28;38218;-84
2021/05/26 03:59:23;;;;;;;2.10;1.10;;;10.80;59.10;;;;;;5092643;28;36801;-83
2021/05/26 04:01:54;;;;;;;3.90;1.60;;;10.80;59.60;;;;;;5090511;28;38471;-84
2021/05/26 04:04:22;;;;;;;2.27;1.20;;;10.80;59.80;;;;;;5084410;28;39243;-83
2021/05/26 04:06:50;;;;;;;5.40;1.20;;;10.70;59.80;;;;;;5090040;28;37048;-83
2021/05/26 04:09:22;;;;;;;2.40;1.43;;;10.60;59.40;;;;;;5094990;28;35618;-85
2021/05/26 04:11:50;;;;;;;2.80;1.27;;;10.60;59.90;;;;;;5092406;28;38763;-83
2021/05/26 04:14:35;;;;;;;3.37;1.40;;;10.60;59.90;;;;;;5099170;28;40023;-83
2021/05/26 04:17:22;;;;;;;3.00;1.47;;;10.70;60.30;;;;;;5110993;28;38082;-83
2021/05/26 04:20:10;;;;;;;2.90;1.20;;;10.70;59.60;;;;;;5099941;28;37536;-83
2021/05/26 04:22:38;;;;;;;2.50;0.83;;;10.70;59.10;;;;;;5113447;28;40663;-84
2021/05/26 04:25:09;;;;;;;1.30;1.10;;;10.70;59.20;;;;;;5092768;28;38748;-84
2021/05/26 04:27:36;;;;;;;2.00;1.03;;;10.70;59.20;;;;;;5123491;27;38112;-84
2021/05/26 04:30:04;;;;;;;2.30;1.20;;;10.80;59.30;;;;;;5088783;28;35966;-83
2021/05/26 04:32:37;;;;;;;2.23;0.93;;;10.90;58.60;;;;;;5093191;28;40840;-83
2021/05/26 04:35:05;;;;;;;2.40;1.20;;;10.90;58.40;;;;;;5113185;27;39939;-83
2021/05/26 04:37:35;;;;;;;1.10;1.00;;;11.00;58.30;;;;;;5092932;28;37406;-83
2021/05/26 04:40:02;;;;;;;4.73;1.17;;;10.90;57.90;;;;;;5084398;28;37357;-84
2021/05/26 04:42:30;;;;;;;3.83;1.00;;;11.00;58.10;;;;;;5111493;28;39821;-83
2021/05/26 04:44:57;;;;;;;2.63;1.10;;;11.00;57.90;;;;;;5084497;28;37985;-84
2021/05/26 04:47:24;;;;;;;2.07;1.10;;;11.00;57.80;;;;;;5110125;28;39206;-83
2021/05/26 04:49:51;;;;;;;2.33;1.00;;;11.10;57.50;;;;;;5111502;28;37367;-84
2021/05/26 04:52:18;;;;;;;2.00;0.90;;;11.20;56.80;;;;;;5094279;28;38129;-83
2021/05/26 04:54:45;;;;;;;1.20;0.90;;;11.20;56.30;;;;;;5090448;28;38800;-84
2021/05/26 04:57:12;;;;;;;1.57;0.93;;;11.20;55.90;;;;;;5083762;28;37942;-83
2021/05/26 04:59:40;;;;;;;1.50;0.77;;;11.20;55.60;;;;;;5089176;28;35903;-84
2021/05/26 05:02:07;;;;;;;1.47;0.70;;;11.30;56.00;;;;;;5108316;27;40591;-84
2021/05/26 05:04:34;;;;;;;2.60;1.17;;;11.40;55.90;;;;;;5097112;28;37988;-83
2021/05/26 05:07:01;;;;;;;1.93;0.83;;;11.40;55.50;;;;;;5092597;28;37006;-84
2021/05/26 05:09:28;;;;;;;1.63;0.80;;;11.50;55.50;;;;;;5113574;28;36867;-84
2021/05/26 05:11:58;;;;;;;1.87;0.90;;;11.40;54.70;;;;;;5115407;28;39678;-84
2021/05/26 05:14:25;;;;;;;6.77;1.73;;;11.50;55.00;;;;;;5114850;28;39993;-83
2021/05/26 05:16:52;;;;;;;1.83;0.83;;;11.50;55.20;;;;;;5096544;28;38843;-84
2021/05/26 05:19:19;;;;;;;1.73;0.90;;;11.50;54.70;;;;;;5113631;28;37198;-83
2021/05/26 05:21:47;;;;;;;1.57;0.90;;;11.50;54.70;;;;;;5097802;28;38274;-83
2021/05/26 05:24:14;;;;;;;2.03;0.97;;;11.60;55.30;;;;;;5095524;28;38872;-84
2021/05/26 05:26:41;;;;;;;2.20;0.97;;;11.70;55.60;;;;;;5094003;28;37119;-83
2021/05/26 05:29:08;;;;;;;2.60;1.20;;;11.70;55.90;;;;;;5092121;27;36165;-84
2021/05/26 05:31:35;;;;;;;3.00;0.83;;;11.70;55.70;;;;;;5103213;28;38550;-85
2021/05/26 05:34:03;;;;;;;3.27;1.00;;;11.70;55.10;;;;;;5106473;27;39586;-85
2021/05/26 05:36:30;;;;;;;1.80;0.80;;;11.70;55.30;;;;;;5083333;27;37267;-84
2021/05/26 05:38:57;;;;;;;1.13;1.03;;;11.70;54.90;;;;;;5095805;28;35737;-84
2021/05/26 05:41:24;;;;;;;3.43;1.10;;;11.70;54.90;;;;;;5111553;27;39686;-83
2021/05/26 05:43:51;;;;;;;3.67;1.33;;;11.80;55.50;;;;;;5114927;27;39256;-84
2021/05/26 05:46:18;;;;;;;3.07;1.00;;;11.80;55.20;;;;;;5106666;27;39079;-84
2021/05/26 05:48:45;;;;;;;1.23;1.10;;;11.90;55.10;;;;;;5112201;27;37364;-84
2021/05/26 05:51:13;;;;;;;2.33;1.23;;;11.90;55.10;;;;;;5088417;28;39195;-84
2021/05/26 05:53:40;;;;;;;2.50;1.00;;;12.00;55.20;;;;;;5111973;27;39304;-84
2021/05/26 05:56:07;;;;;;;3.07;0.90;;;12.00;55.20;;;;;;5086725;27;37527;-84
2021/05/26 05:58:34;;;;;;;3.40;1.10;;;12.00;54.50;;;;;;5081183;28;36053;-84
2021/05/26 06:01:02;;;;;;;1.67;0.77;;;12.10;54.50;;;;;;5108966;27;39437;-85
2021/05/26 06:03:29;;;;;;;1.33;0.70;;;12.10;54.90;;;;;;5114183;27;39258;-85
2021/05/26 06:05:56;;;;;;;1.73;0.97;;;12.20;55.00;;;;;;5128828;27;38505;-86
2021/05/26 06:08:25;;;;;;;0.90;0.80;;;12.20;54.70;;;;;;5096489;28;35694;-85
2021/05/26 06:10:52;;;;;;;3.87;1.10;;;12.20;55.20;;;;;;5117725;28;40704;-86
2021/05/26 06:13:19;;;;;;;1.87;1.33;;;12.30;55.10;;;;;;5098357;27;37874;-85
2021/05/26 06:15:46;;;;;;;1.00;0.90;;;12.20;55.40;;;;;;5098789;28;37382;-86
2021/05/26 06:18:13;;;;;;;2.60;1.00;;;12.20;53.90;;;;;;5094237;28;35510;-85
2021/05/26 06:20:40;;;;;;;2.90;0.90;;;12.20;54.70;;;;;;5116046;28;39813;-86
2021/05/26 06:23:07;;;;;;;1.23;0.70;;;12.20;55.10;;;;;;5121144;28;39009;-85
2021/05/26 06:25:36;;;;;;;5.90;1.10;;;12.30;55.10;;;;;;5122650;28;39423;-86
2021/05/26 06:28:03;;;;;;;1.40;0.80;;;12.40;55.40;;;;;;5121925;28;37722;-85
2021/05/26 06:30:31;;;;;;;8.13;1.37;;;12.60;55.60;;;;;;5118840;28;40776;-83
2021/05/26 06:32:58;;;;;;;2.07;0.80;;;12.70;55.80;;;;;;5104415;28;37988;-84
2021/05/26 06:35:25;;;;;;;1.60;0.90;;;12.80;55.90;;;;;;5115937;27;38557;-85
2021/05/26 06:37:52;;;;;;;4.10;1.00;;;12.90;55.20;;;;;;5105302;27;35851;-85
2021/05/26 06:40:19;;;;;;;1.30;0.93;;;13.00;55.10;;;;;;5126311;27;40277;-84
2021/05/26 06:42:47;;;;;;;1.93;1.00;;;13.10;54.40;;;;;;5088841;28;38716;-85
2021/05/26 06:45:17;;;;;;;1.20;0.80;;;13.30;54.30;;;;;;5097523;28;38326;-83
2021/05/26 06:47:47;;;;;;;2.27;0.93;;;13.40;54.10;;;;;;5098625;27;36578;-84
2021/05/26 06:50:16;;;;;;;4.47;1.63;;;13.50;54.80;;;;;;5107845;28;37990;-84
2021/05/26 06:52:43;;;;;;;3.10;1.57;;;13.50;55.20;;;;;;5119863;27;41428;-86
2021/05/26 06:55:11;;;;;;;3.63;1.50;;;13.50;54.60;;;;;;5106161;27;36663;-85
2021/05/26 06:57:38;;;;;;;4.47;1.23;;;13.40;54.30;;;;;;5100769;27;35836;-85
2021/05/26 07:00:08;;;;;;;3.30;1.57;;;13.30;54.60;;;;;;5126695;27;39966;-84
2021/05/26 07:02:39;;;;;;;5.97;1.97;;;13.30;55.30;;;;;;5105031;27;37952;-87
2021/05/26 07:05:07;;;;;;;2.90;1.27;;;13.20;56.00;;;;;;5094602;28;38439;-86
2021/05/26 07:07:35;;;;;;;7.90;1.70;;;13.10;56.20;;;;;;5112104;27;37077;-86
2021/05/26 07:10:02;;;;;;;5.03;1.60;;;13.00;56.90;;;;;;5123947;27;39994;-83
2021/05/26 07:12:32;;;;;;;6.40;2.10;;;12.90;56.90;;;;;;5097067;28;37707;-84
2021/05/26 07:14:59;;;;;;;6.03;2.00;;;13.00;58.70;;;;;;5099813;28;37781;-85
2021/05/26 07:17:27;;;;;;;2.80;1.47;;;13.10;58.70;;;;;;5113572;27;37441;-85
2021/05/26 07:19:54;;;;;;;4.93;1.70;;;13.20;59.70;;;;;;5123917;28;40275;-85
2021/05/26 07:29:36;;;;;;;3.13;1.93;;;13.80;59.80;;;;;;5121460;27;37897;-85
2021/05/26 07:32:04;;;;;;;2.83;1.70;;;14.00;58.50;;;;;;5091083;28;38067;-85
2021/05/26 07:34:32;;;;;;;7.47;2.10;;;14.00;56.70;;;;;;5079842;28;38914;-86
2021/05/26 07:37:00;;;;;;;6.27;3.23;;;14.00;57.00;;;;;;5074798;28;37170;-85
2021/05/26 07:39:28;;;;;;;5.10;2.00;;;14.00;57.40;;;;;;5096358;28;36922;-83
2021/05/26 07:41:55;;;;;;;4.70;1.70;;;14.00;57.80;;;;;;5094511;28;38677;-84
2021/05/26 07:44:22;;;;;;;7.50;1.80;;;14.10;57.50;;;;;;5096793;28;39188;-84
2021/05/26 07:46:53;;;;;;;3.57;1.70;;;14.10;56.40;;;;;;5098753;28;39506;-88
2021/05/26 07:49:21;;;;;;;3.00;1.80;;;14.20;55.50;;;;;;5076872;28;36264;-88
2021/05/26 07:52:08;;;;;;;3.90;1.60;;;14.30;55.10;;;;;;5087975;28;38545;-88
2021/05/26 07:54:36;;;;;;;6.20;1.83;;;14.50;54.80;;;;;;5091208;28;37936;-90
2021/05/26 07:57:05;;;;;;;3.43;1.53;;;14.60;54.50;;;;;;5082089;28;38162;-83
2021/05/26 07:59:32;;;;;;;5.80;1.73;;;14.70;53.80;;;;;;5075529;28;35800;-85
2021/05/26 08:01:59;;;;;;;4.03;1.87;;;14.80;53.40;;;;;;5103103;28;39313;-83
2021/05/26 08:04:26;;;;;;;2.60;1.37;;;14.80;53.10;;;;;;5095452;28;40538;-83
2021/05/26 08:06:53;;;;;;;4.37;1.60;;;14.80;53.40;;;;;;5094401;28;38650;-85
2021/05/26 08:09:21;;;;;;;4.60;1.20;;;14.80;52.80;;;;;;5098594;28;37360;-83
2021/05/26 08:11:49;;;;;;;5.50;1.60;;;14.80;52.40;;;;;;5091529;28;39971;-83
2021/05/26 08:14:16;;;;;;;9.67;1.90;;;14.80;52.60;;;;;;5094645;28;39321;-84
2021/05/26 08:16:43;;;;;;;3.20;1.70;;;14.80;52.40;;;;;;5095312;28;38353;-84
2021/05/26 08:19:10;;;;;;;4.83;1.77;;;14.80;52.50;;;;;;5094844;28;37841;-85
2021/05/26 08:21:39;;;;;;;4.90;1.63;;;14.80;52.70;;;;;;5094302;28;39676;-84
2021/05/26 08:24:08;;;;;;;3.27;1.80;;;14.70;51.60;;;;;;5100264;28;39674;-83
2021/05/26 08:26:36;;;;;;;5.47;1.60;;;14.60;51.70;;;;;;5101951;28;38691;-83
2021/05/26 08:29:04;;;;;;;4.03;1.57;;;14.50;50.90;;;;;;5096083;28;37877;-83
2021/05/26 08:31:32;;;;;;;3.90;1.87;;;14.50;51.50;;;;;;5096300;28;40444;-83
2021/05/26 08:33:59;;;;;;;3.97;1.97;;;14.60;51.70;;;;;;5114962;27;39279;-83
2021/05/26 08:36:28;;;;;;;8.90;2.40;;;14.70;52.00;;;;;;5112688;27;39052;-84
2021/05/26 08:38:55;;;;;;;6.03;2.00;;;14.70;51.00;;;;;;5116960;27;38625;-82
2021/05/26 08:41:26;;;;;;;6.03;1.77;;;14.70;50.90;;;;;;5118549;27;40265;-83
2021/05/26 08:43:56;;;;;;;9.50;2.80;;;14.70;52.00;;;;;;5117054;28;39457;-83
2021/05/26 08:46:23;;;;;;;6.13;2.17;;;14.70;51.20;;;;;;5115613;27;38879;-84
2021/05/26 08:48:53;;;;;;;3.33;1.93;;;14.70;51.20;;;;;;5111715;28;37565;-87
2021/05/26 08:51:25;;;;;;;3.40;1.83;;;14.80;51.30;;;;;;5115116;27;40546;-89
2021/05/26 08:53:52;;;;;;;3.77;2.00;;;14.70;51.10;;;;;;5115623;27;39892;-87
2021/05/26 08:56:19;;;;;;;13.40;3.40;;;14.70;51.60;;;;;;5115946;27;38613;-89
2021/05/26 08:58:46;;;;;;;14.10;2.17;;;14.60;50.20;;;;;;5117979;28;37463;-83
2021/05/26 09:01:14;;;;;;;3.43;1.50;;;14.60;50.40;;;;;;5117977;27;40301;-85
2021/05/26 09:03:45;;;;;;;4.20;2.30;;;14.60;50.20;;;;;;5119255;27;39873;-86
2021/05/26 09:06:13;;;;;;;7.10;2.20;;;14.50;50.20;;;;;;5116005;27;38917;-83
2021/05/26 09:08:48;;;;;;;7.00;1.53;;;14.30;50.30;;;;;;5122271;27;37245;-83
2021/05/26 09:11:18;;;;;;;4.70;1.67;;;14.20;50.70;;;;;;5121416;27;40409;-83
2021/05/26 09:13:45;;;;;;;4.53;2.10;;;14.10;50.90;;;;;;5119633;27;39651;-83
2021/05/26 09:16:31;;;;;;;2.33;1.67;;;14.10;51.70;;;;;;5121312;27;38562;-85
2021/05/26 09:19:01;;;;;;;5.17;2.03;;;14.10;51.70;;;;;;5119283;27;37571;-84
2021/05/26 09:21:39;;;;;;;3.20;1.50;;;14.10;50.70;;;;;;5117640;27;40456;-85
2021/05/26 09:24:28;;;;;;;4.73;1.67;;;14.20;51.50;;;;;;5113793;27;39958;-85
2021/05/26 09:26:59;;;;;;;4.20;1.70;;;14.20;50.40;;;;;;5113821;27;38365;-84
2021/05/26 09:29:27;;;;;;;4.07;1.60;;;14.30;50.60;;;;;;5112882;27;37543;-83
2021/05/26 09:32:13;;;;;;;4.87;1.73;;;14.30;50.90;;;;;;5114335;27;39807;-83
2021/05/26 09:34:41;;;;;;;13.70;3.37;;;14.50;50.60;;;;;;5110040;27;39638;-83
2021/05/26 09:37:15;;;;;;;3.43;1.40;;;14.60;50.70;;;;;;5119127;27;38610;-85
2021/05/26 09:39:57;;;;;;;5.43;1.73;;;14.70;50.40;;;;;;5116423;27;37997;-84
2021/05/26 09:42:28;;;;;;;3.40;1.93;;;14.80;50.00;;;;;;5125059;27;39789;-85
2021/05/26 09:45:11;;;;;;;2.93;2.00;;;14.90;50.20;;;;;;5118823;27;38786;-85
2021/05/26 09:47:40;;;;;;;5.03;1.40;;;15.00;49.90;;;;;;5118377;27;38195;-85
2021/05/26 09:50:26;;;;;;;4.63;1.63;;;15.00;49.60;;;;;;5125230;27;37386;-85
2021/05/26 09:52:59;;;;;;;3.10;1.43;;;15.20;49.40;;;;;;5117752;27;39866;-85
2021/05/26 09:55:28;;;;;;;2.63;1.50;;;15.20;49.60;;;;;;5117775;27;39437;-85
2021/05/26 09:57:57;;;;;;;2.77;1.67;;;15.30;49.50;;;;;;5115802;27;39694;-85
2021/05/26 10:00:24;;;;;;;5.30;1.60;;;15.50;49.70;;;;;;5118208;27;38158;-85
2021/05/26 10:02:52;;;;;;;2.37;1.20;;;15.70;49.20;;;;;;5100073;27;38541;-84
2021/05/26 10:05:20;;;;;;;4.70;1.70;;;15.60;47.80;;;;;;5097654;28;38088;-84
2021/05/26 10:08:07;;;;;;;3.10;1.47;;;15.60;47.90;;;;;;5123046;27;39677;-84
2021/05/26 10:10:38;;;;;;;2.03;1.20;;;15.70;48.40;;;;;;5098484;27;37105;-86
2021/05/26 10:13:14;;;;;;;3.43;1.17;;;15.90;47.30;;;;;;5101194;27;38133;-84
2021/05/26 10:15:42;;;;;;;1.97;0.90;;;15.90;46.10;;;;;;5099779;27;37778;-84
2021/05/26 10:18:10;;;;;;;3.27;1.20;;;15.60;45.30;;;;;;5113690;27;38390;-85
2021/05/26 10:20:39;;;;;;;3.33;1.10;;;15.60;45.50;;;;;;5099265;28;35468;-90
2021/05/26 10:23:08;;;;;;;4.10;1.90;;;15.30;45.70;;;;;;5110399;28;39591;-89
2021/05/26 10:25:43;;;;;;;3.40;1.10;;;15.10;45.80;;;;;;5120043;27;39410;-89
2021/05/26 10:28:26;;;;;;;1.10;0.80;;;15.10;46.80;;;;;;5115747;27;38553;-89
2021/05/26 10:30:55;;;;;;;1.77;1.10;;;15.00;46.70;;;;;;5112058;27;36108;-89
2021/05/26 10:33:54;;;;;;;1.37;0.80;;;15.10;46.40;;;;;;5114731;27;40643;-84
2021/05/26 10:36:22;;;;;;;2.33;1.07;;;15.30;46.30;;;;;;5111017;27;37856;-85
2021/05/26 10:39:08;;;;;;;4.87;1.47;;;15.20;46.30;;;;;;5126300;27;39157;-84
2021/05/26 10:41:49;;;;;;;2.73;1.00;;;15.10;46.30;;;;;;5113363;27;37963;-85
2021/05/26 10:44:16;;;;;;;2.40;1.17;;;15.00;46.40;;;;;;5112519;27;39861;-84
2021/05/26 10:46:48;;;;;;;2.30;1.20;;;14.90;46.60;;;;;;5112550;27;39858;-86
2021/05/26 10:49:16;;;;;;;3.40;1.30;;;15.00;47.30;;;;;;5100815;27;37015;-86
2021/05/26 10:52:07;;;;;;;1.70;1.03;;;15.20;47.70;;;;;;5112416;27;38021;-85
2021/05/26 10:54:58;;;;;;;3.13;1.30;;;15.40;47.20;;;;;;5110252;27;39882;-88
2021/05/26 10:57:26;;;;;;;4.00;1.63;;;15.60;46.80;;;;;;5102267;27;39031;-87
2021/05/26 11:00:21;;;;;;;3.27;0.97;;;15.70;46.90;;;;;;5116280;27;38739;-84
2021/05/26 11:03:21;;;;;;;4.37;1.30;;;15.80;46.80;;;;;;5099716;27;38181;-85
2021/05/26 11:05:48;;;;;;;3.70;1.20;;;16.00;46.20;;;;;;5109539;27;39651;-86
2021/05/26 11:08:30;;;;;;;3.23;1.20;;;16.10;46.80;;;;;;5105356;27;39202;-86
2021/05/26 11:10:58;;;;;;;3.43;1.10;;;16.20;46.20;;;;;;5117534;27;38393;-87
2021/05/26 11:13:26;;;;;;;3.13;1.20;;;16.30;45.60;;;;;;5099151;28;37250;-87
2021/05/26 11:15:59;;;;;;;1.50;1.23;;;16.50;45.70;;;;;;5108671;27;39582;-87
2021/05/26 11:18:31;;;;;;;2.47;0.97;;;16.40;45.50;;;;;;5095860;27;38692;-84
2021/05/26 11:20:58;;;;;;;2.73;1.00;;;16.50;45.60;;;;;;5105438;27;39336;-87
2021/05/26 11:23:25;;;;;;;2.13;0.80;;;16.40;45.50;;;;;;5125423;27;36070;-87
2021/05/26 11:25:59;;;;;;;1.90;0.93;;;16.50;45.30;;;;;;5111636;27;39713;-85
2021/05/26 11:28:28;;;;;;;2.13;1.00;;;16.60;45.40;;;;;;5104756;28;37816;-88
2021/05/26 11:31:02;;;;;;;2.00;0.90;;;16.50;44.90;;;;;;5117166;27;39185;-85
2021/05/26 11:33:29;;;;;;;2.47;1.00;;;16.50;44.90;;;;;;5096399;28;35739;-86
2021/05/26 11:36:02;;;;;;;1.30;0.80;;;16.40;45.00;;;;;;5098523;27;38318;-87
2021/05/26 11:38:32;;;;;;;1.37;0.87;;;16.50;44.70;;;;;;5116064;27;39045;-87
2021/05/26 11:41:01;;;;;;;1.20;0.90;;;16.40;44.80;;;;;;5103457;27;38337;-89
2021/05/26 11:43:35;;;;;;;1.80;0.97;;;16.50;44.80;;;;;;5119870;28;35993;-86
2021/05/26 11:46:06;;;;;;;1.70;0.93;;;16.80;43.80;;;;;;5100474;28;39717;-87
2021/05/26 11:48:36;;;;;;;2.20;0.87;;;17.10;43.70;;;;;;5115855;27;40016;-86
2021/05/26 11:51:09;;;;;;;2.53;1.13;;;17.40;43.20;;;;;;5105850;28;37404;-89
2021/05/26 11:53:36;;;;;;;3.87;0.90;;;17.60;43.00;;;;;;5113621;28;35666;-87
2021/05/26 11:56:04;;;;;;;1.83;1.00;;;17.90;41.60;;;;;;5117174;27;39957;-89
2021/05/26 11:58:40;;;;;;;1.00;0.77;;;18.20;41.80;;;;;;5098727;28;39090;-89
2021/05/26 12:01:14;;;;;;;1.90;1.00;;;18.30;41.50;;;;;;5097975;28;37087;-88
2021/05/26 12:03:42;;;;;;;2.40;0.80;;;18.20;41.10;;;;;;5118990;27;35608;-90
2021/05/26 12:06:09;;;;;;;2.90;1.10;;;18.10;41.00;;;;;;5114151;27;39564;-90
2021/05/26 12:08:44;;;;;;;1.20;0.70;;;18.00;41.50;;;;;;5123471;27;39692;-88
2021/05/26 12:11:14;;;;;;;1.10;0.60;;;17.80;41.10;;;;;;5118427;27;38585;-87
2021/05/26 12:13:43;;;;;;;1.00;0.80;;;17.50;41.30;;;;;;5100754;27;37083;-86
2021/05/26 12:16:14;;;;;;;2.23;0.80;;;17.40;41.80;;;;;;5103956;27;38069;-86
2021/05/26 12:18:51;;;;;;;1.73;0.90;;;17.30;41.80;;;;;;5121944;27;39072;-86
2021/05/26 12:21:21;;;;;;;1.70;0.90;;;17.30;42.30;;;;;;5102933;28;36763;-86
2021/05/26 12:23:48;;;;;;;1.27;0.80;;;17.30;41.60;;;;;;5094302;28;35932;-87
2021/05/26 12:26:24;;;;;;;2.27;0.67;;;17.20;42.30;;;;;;5116032;28;36898;-89
2021/05/26 12:28:59;;;;;;;1.43;0.80;;;17.20;42.50;;;;;;5112917;27;38443;-87
2021/05/26 12:31:28;;;;;;;1.43;0.97;;;17.20;41.90;;;;;;5120081;27;39027;-88
2021/05/26 12:33:56;;;;;;;1.43;0.80;;;17.00;42.10;;;;;;5104001;28;35602;-85
2021/05/26 12:36:25;;;;;;;1.10;0.80;;;16.90;41.30;;;;;;5090239;28;38342;-88
2021/05/26 12:38:58;;;;;;;1.73;1.07;;;17.00;41.60;;;;;;5120921;27;39155;-88
2021/05/26 12:41:31;;;;;;;1.13;0.70;;;17.10;41.70;;;;;;5106483;27;37422;-86
2021/05/26 12:44:02;;;;;;;3.40;0.90;;;17.10;41.10;;;;;;5117965;27;37524;-86
2021/05/26 12:46:38;;;;;;;1.20;0.60;;;17.20;41.10;;;;;;5119339;27;39913;-85
2021/05/26 12:49:24;;;;;;;4.17;0.77;;;17.40;41.00;;;;;;5109454;27;38256;-85
2021/05/26 12:51:51;;;;;;;1.67;1.00;;;17.60;40.80;;;;;;5109963;27;39571;-88
2021/05/26 12:54:18;;;;;;;0.80;0.60;;;17.80;39.90;;;;;;5089923;28;36580;-85
2021/05/26 12:56:47;;;;;;;1.77;0.70;;;17.90;39.60;;;;;;5095136;28;40069;-85
2021/05/26 12:59:14;;;;;;;1.53;0.80;;;18.00;39.30;;;;;;5123556;27;39226;-85
2021/05/26 13:02:02;;;;;;;2.47;0.83;;;18.10;39.60;;;;;;5113741;27;37062;-85
2021/05/26 13:04:30;;;;;;;1.60;0.77;;;18.50;38.80;;;;;;5104814;27;36180;-86
2021/05/26 13:06:57;;;;;;;14.80;0.90;;;18.80;38.60;;;;;;5098019;28;38545;-89
2021/05/26 13:09:33;;;;;;;2.60;1.23;;;18.90;38.10;;;;;;5108762;28;38410;-89
2021/05/26 13:12:06;;;;;;;1.63;0.83;;;19.20;37.80;;;;;;5103807;27;39733;-92